sensor_id;sensor_type;location;lat;lon;timestamp;temperature;humidity
35313;DHT22;21425;50.454;30.466;2023-02-28T00:00:17;-2.20;99.90
35313;DHT22;21425;50.454;30.466;2023-02-28T00:02:43;-2.60;99.90
35313;DHT22;21425;50.454;30.466;2023-02-28T00:05:11;-2.60;99.90
35313;DHT22;21425;50.454;30.466;2023-02-28T00:07:37;-2.50;99.90
35313;DHT22;21425;50.454;30.466;2023-02-28T00:10:05;-2.60;99.90
35313;DHT22;21425;50.454;30.466;2023-02-28T00:12:33;-2.70;99.90
35313;DHT22;21425;50.454;30.466;2023-02-28T00:14:58;-2.50;99.90
35313;DHT22;21425;50.454;30.466;2023-02-28T00:19:51;-2.20;99.90
35313;DHT22;21425;50.454;30.466;2023-02-28T00:22:18;-2.40;99.90
35313;DHT22;21425;50.454;30.466;2023-02-28T00:24:44;-2.50;99.90
35313;DHT22;21425;50.454;30.466;2023-02-28T00:27:10;-2.60;99.90
35313;DHT22;21425;50.454;30.466;2023-02-28T00:29:36;-2.60;99.90
35313;DHT22;21425;50.454;30.466;2023-02-28T00:32:02;-2.60;99.90
35313;DHT22;21425;50.454;30.466;2023-02-28T00:34:27;-2.50;99.90
35313;DHT22;21425;50.454;30.466;2023-02-28T00:36:53;-3.00;99.90
35313;DHT22;21425;50.454;30.466;2023-02-28T00:39:19;-2.50;99.90
35313;DHT22;21425;50.454;30.466;2023-02-28T00:41:44;-2.60;99.90
35313;DHT22;21425;50.454;30.466;2023-02-28T00:44:10;-2.50;99.90
35313;DHT22;21425;50.454;30.466;2023-02-28T00:46:35;-2.70;99.90
35313;DHT22;21425;50.454;30.466;2023-02-28T00:49:01;-2.60;99.90
35313;DHT22;21425;50.454;30.466;2023-02-28T00:51:26;-2.60;99.90
35313;DHT22;21425;50.454;30.466;2023-02-28T00:53:52;-2.60;99.90
35313;DHT22;21425;50.454;30.466;2023-02-28T00:56:17;-1.60;99.90
35313;DHT22;21425;50.454;30.466;2023-02-28T00:58:43;-2.70;99.90
35313;DHT22;21425;50.454;30.466;2023-02-28T01:01:08;-2.60;99.90
35313;DHT22;21425;50.454;30.466;2023-02-28T01:03:34;-2.10;99.90
35313;DHT22;21425;50.454;30.466;2023-02-28T01:06:00;-2.70;99.90
35313;DHT22;21425;50.454;30.466;2023-02-28T01:08:26;-3.10;99.90
35313;DHT22;21425;50.454;30.466;2023-02-28T01:10:52;-2.80;99.90
35313;DHT22;21425;50.454;30.466;2023-02-28T01:13:18;-2.60;99.90
35313;DHT22;21425;50.454;30.466;2023-02-28T01:15:53;-2.80;99.90
35313;DHT22;21425;50.454;30.466;2023-02-28T01:18:20;-2.20;99.90
35313;DHT22;21425;50.454;30.466;2023-02-28T01:20:46;-2.80;99.90
35313;DHT22;21425;50.454;30.466;2023-02-28T01:23:12;-2.80;99.90
35313;DHT22;21425;50.454;30.466;2023-02-28T01:25:37;-2.80;99.90
35313;DHT22;21425;50.454;30.466;2023-02-28T01:28:04;-2.90;99.90
35313;DHT22;21425;50.454;30.466;2023-02-28T01:32:56;-2.90;99.90
35313;DHT22;21425;50.454;30.466;2023-02-28T01:35:22;-2.80;99.90
35313;DHT22;21425;50.454;30.466;2023-02-28T01:37:48;-3.00;99.90
35313;DHT22;21425;50.454;30.466;2023-02-28T01:40:14;-2.30;99.90
35313;DHT22;21425;50.454;30.466;2023-02-28T01:42:39;-3.00;99.90
35313;DHT22;21425;50.454;30.466;2023-02-28T01:45:26;-2.80;99.90
35313;DHT22;21425;50.454;30.466;2023-02-28T01:47:57;-2.20;99.90
35313;DHT22;21425;50.454;30.466;2023-02-28T01:50:28;-3.00;99.90
35313;DHT22;21425;50.454;30.466;2023-02-28T01:52:56;-2.00;99.90
35313;DHT22;21425;50.454;30.466;2023-02-28T01:55:22;-3.00;99.90
35313;DHT22;21425;50.454;30.466;2023-02-28T01:57:52;-3.00;99.90
35313;DHT22;21425;50.454;30.466;2023-02-28T02:00:23;-3.00;99.90
35313;DHT22;21425;50.454;30.466;2023-02-28T02:02:53;-2.90;99.90
35313;DHT22;21425;50.454;30.466;2023-02-28T02:05:28;-3.00;99.90
35313;DHT22;21425;50.454;30.466;2023-02-28T02:07:58;-2.80;99.90
35313;DHT22;21425;50.454;30.466;2023-02-28T02:18:46;-3.10;99.90
35313;DHT22;21425;50.454;30.466;2023-02-28T02:27:06;-3.10;99.90
35313;DHT22;21425;50.454;30.466;2023-02-28T02:32:47;-3.10;99.90
35313;DHT22;21425;50.454;30.466;2023-02-28T02:46:27;-3.00;99.90
35313;DHT22;21425;50.454;30.466;2023-02-28T02:48:56;-3.10;99.90
35313;DHT22;21425;50.454;30.466;2023-02-28T02:51:23;-2.20;99.90
35313;DHT22;21425;50.454;30.466;2023-02-28T02:53:54;-2.00;99.90
35313;DHT22;21425;50.454;30.466;2023-02-28T02:56:25;-3.10;99.90
35313;DHT22;21425;50.454;30.466;2023-02-28T02:58:56;-3.00;99.90
35313;DHT22;21425;50.454;30.466;2023-02-28T03:01:24;-2.00;99.90
35313;DHT22;21425;50.454;30.466;2023-02-28T03:03:59;-2.30;99.90
35313;DHT22;21425;50.454;30.466;2023-02-28T03:06:26;-3.10;99.90
35313;DHT22;21425;50.454;30.466;2023-02-28T03:08:52;-3.10;99.90
35313;DHT22;21425;50.454;30.466;2023-02-28T03:11:18;-2.80;99.90
35313;DHT22;21425;50.454;30.466;2023-02-28T03:17:12;-3.10;99.90
35313;DHT22;21425;50.454;30.466;2023-02-28T03:19:47;-3.10;99.90
35313;DHT22;21425;50.454;30.466;2023-02-28T03:28:13;-3.10;99.90
35313;DHT22;21425;50.454;30.466;2023-02-28T03:33:13;-3.10;99.90
35313;DHT22;21425;50.454;30.466;2023-02-28T03:35:43;-3.20;99.90
35313;DHT22;21425;50.454;30.466;2023-02-28T03:41:23;-3.30;99.90
35313;DHT22;21425;50.454;30.466;2023-02-28T03:43:56;-3.20;99.90
35313;DHT22;21425;50.454;30.466;2023-02-28T03:46:26;-2.40;99.90
35313;DHT22;21425;50.454;30.466;2023-02-28T03:49:03;-3.10;99.90
35313;DHT22;21425;50.454;30.466;2023-02-28T03:51:32;-3.20;99.90
35313;DHT22;21425;50.454;30.466;2023-02-28T03:54:04;-2.30;99.90
35313;DHT22;21425;50.454;30.466;2023-02-28T03:56:37;-1.90;99.90
35313;DHT22;21425;50.454;30.466;2023-02-28T03:59:14;-3.20;99.90
35313;DHT22;21425;50.454;30.466;2023-02-28T04:01:48;-3.50;99.90
35313;DHT22;21425;50.454;30.466;2023-02-28T04:04:15;-3.30;99.90
35313;DHT22;21425;50.454;30.466;2023-02-28T04:06:41;-3.30;99.90
35313;DHT22;21425;50.454;30.466;2023-02-28T04:09:09;-3.30;99.90
35313;DHT22;21425;50.454;30.466;2023-02-28T04:11:41;-3.20;99.90
35313;DHT22;21425;50.454;30.466;2023-02-28T04:14:08;-3.40;99.90
35313;DHT22;21425;50.454;30.466;2023-02-28T04:16:36;-3.20;99.90
35313;DHT22;21425;50.454;30.466;2023-02-28T04:19:05;-3.40;99.90
35313;DHT22;21425;50.454;30.466;2023-02-28T04:21:33;-3.40;99.90
35313;DHT22;21425;50.454;30.466;2023-02-28T04:23:59;-3.40;99.90
35313;DHT22;21425;50.454;30.466;2023-02-28T04:26:31;-3.40;99.90
35313;DHT22;21425;50.454;30.466;2023-02-28T04:28:58;-2.90;99.90
35313;DHT22;21425;50.454;30.466;2023-02-28T04:31:24;-3.30;99.90
35313;DHT22;21425;50.454;30.466;2023-02-28T04:33:49;-2.80;99.90
35313;DHT22;21425;50.454;30.466;2023-02-28T04:36:15;-3.50;99.90
35313;DHT22;21425;50.454;30.466;2023-02-28T04:38:43;-3.40;99.90
35313;DHT22;21425;50.454;30.466;2023-02-28T04:41:09;-3.30;99.90
35313;DHT22;21425;50.454;30.466;2023-02-28T04:43:34;-2.20;99.90
35313;DHT22;21425;50.454;30.466;2023-02-28T04:46:02;-3.60;99.90
35313;DHT22;21425;50.454;30.466;2023-02-28T04:48:29;-3.50;99.90
35313;DHT22;21425;50.454;30.466;2023-02-28T04:50:55;-4.00;99.90
35313;DHT22;21425;50.454;30.466;2023-02-28T04:53:24;-3.60;99.90
35313;DHT22;21425;50.454;30.466;2023-02-28T04:55:50;-3.60;99.90
35313;DHT22;21425;50.454;30.466;2023-02-28T04:58:16;-3.40;99.90
35313;DHT22;21425;50.454;30.466;2023-02-28T05:00:41;-4.10;99.90
35313;DHT22;21425;50.454;30.466;2023-02-28T05:03:07;-3.50;99.90
35313;DHT22;21425;50.454;30.466;2023-02-28T05:05:32;-3.50;99.90
35313;DHT22;21425;50.454;30.466;2023-02-28T05:07:58;-3.40;99.90
35313;DHT22;21425;50.454;30.466;2023-02-28T05:10:24;-3.60;99.90
35313;DHT22;21425;50.454;30.466;2023-02-28T05:12:50;-3.60;99.90
35313;DHT22;21425;50.454;30.466;2023-02-28T05:15:16;-3.70;99.90
35313;DHT22;21425;50.454;30.466;2023-02-28T05:17:42;-3.60;99.90
35313;DHT22;21425;50.454;30.466;2023-02-28T05:20:08;-3.10;99.90
35313;DHT22;21425;50.454;30.466;2023-02-28T05:22:41;-3.60;99.90
35313;DHT22;21425;50.454;30.466;2023-02-28T05:25:12;-3.70;99.90
35313;DHT22;21425;50.454;30.466;2023-02-28T05:27:38;-3.60;99.90
35313;DHT22;21425;50.454;30.466;2023-02-28T05:30:05;-3.50;99.90
35313;DHT22;21425;50.454;30.466;2023-02-28T05:32:31;-3.50;99.90
35313;DHT22;21425;50.454;30.466;2023-02-28T05:34:57;-3.40;99.90
35313;DHT22;21425;50.454;30.466;2023-02-28T05:37:22;-2.80;99.90
35313;DHT22;21425;50.454;30.466;2023-02-28T05:39:48;-3.50;99.90
35313;DHT22;21425;50.454;30.466;2023-02-28T05:42:14;-3.50;99.90
35313;DHT22;21425;50.454;30.466;2023-02-28T05:44:39;-3.20;99.90
35313;DHT22;21425;50.454;30.466;2023-02-28T05:47:05;-4.50;99.90
35313;DHT22;21425;50.454;30.466;2023-02-28T05:49:30;-3.40;99.90
35313;DHT22;21425;50.454;30.466;2023-02-28T05:51:56;-3.30;99.90
35313;DHT22;21425;50.454;30.466;2023-02-28T05:54:21;-3.30;99.90
35313;DHT22;21425;50.454;30.466;2023-02-28T05:56:47;-3.50;99.90
35313;DHT22;21425;50.454;30.466;2023-02-28T05:59:13;-2.80;99.90
35313;DHT22;21425;50.454;30.466;2023-02-28T06:01:40;-3.20;99.90
35313;DHT22;21425;50.454;30.466;2023-02-28T06:04:09;-3.10;99.90
35313;DHT22;21425;50.454;30.466;2023-02-28T06:06:35;-1.90;99.90
35313;DHT22;21425;50.454;30.466;2023-02-28T06:09:05;-2.00;99.90
35313;DHT22;21425;50.454;30.466;2023-02-28T06:11:31;-2.80;99.90
35313;DHT22;21425;50.454;30.466;2023-02-28T06:13:58;-2.80;99.90
35313;DHT22;21425;50.454;30.466;2023-02-28T06:16:28;-3.00;99.90
35313;DHT22;21425;50.454;30.466;2023-02-28T06:18:54;-3.50;99.90
35313;DHT22;21425;50.454;30.466;2023-02-28T06:21:23;-3.20;99.90
35313;DHT22;21425;50.454;30.466;2023-02-28T06:23:48;-1.00;99.90
35313;DHT22;21425;50.454;30.466;2023-02-28T06:28:40;-3.40;99.90
35313;DHT22;21425;50.454;30.466;2023-02-28T06:31:10;-3.10;99.90
35313;DHT22;21425;50.454;30.466;2023-02-28T06:33:37;-3.00;99.90
35313;DHT22;21425;50.454;30.466;2023-02-28T06:36:04;-2.40;99.90
35313;DHT22;21425;50.454;30.466;2023-02-28T06:38:30;-2.00;99.90
35313;DHT22;21425;50.454;30.466;2023-02-28T06:40:57;-2.50;99.90
35313;DHT22;21425;50.454;30.466;2023-02-28T06:43:24;-3.00;99.90
35313;DHT22;21425;50.454;30.466;2023-02-28T06:45:50;-3.00;99.90
35313;DHT22;21425;50.454;30.466;2023-02-28T06:48:19;-2.70;99.90
35313;DHT22;21425;50.454;30.466;2023-02-28T06:50:44;-2.30;99.90
35313;DHT22;21425;50.454;30.466;2023-02-28T06:53:10;-3.10;99.90
35313;DHT22;21425;50.454;30.466;2023-02-28T06:55:37;-3.00;99.90
35313;DHT22;21425;50.454;30.466;2023-02-28T06:58:03;-3.00;99.90
35313;DHT22;21425;50.454;30.466;2023-02-28T07:00:28;-2.20;99.90
35313;DHT22;21425;50.454;30.466;2023-02-28T07:02:54;-3.10;99.90
35313;DHT22;21425;50.454;30.466;2023-02-28T07:05:20;-3.60;99.90
35313;DHT22;21425;50.454;30.466;2023-02-28T07:07:46;-3.00;99.90
35313;DHT22;21425;50.454;30.466;2023-02-28T07:10:13;-0.60;99.90
35313;DHT22;21425;50.454;30.466;2023-02-28T07:12:42;-3.20;99.90
35313;DHT22;21425;50.454;30.466;2023-02-28T07:15:09;-2.70;99.90
35313;DHT22;21425;50.454;30.466;2023-02-28T07:20:01;-3.10;99.90
35313;DHT22;21425;50.454;30.466;2023-02-28T07:22:26;-3.20;99.90
35313;DHT22;21425;50.454;30.466;2023-02-28T07:24:53;-2.00;99.90
35313;DHT22;21425;50.454;30.466;2023-02-28T07:27:19;-2.50;99.90
35313;DHT22;21425;50.454;30.466;2023-02-28T07:29:49;-2.60;99.90
35313;DHT22;21425;50.454;30.466;2023-02-28T07:32:15;-2.50;99.90
35313;DHT22;21425;50.454;30.466;2023-02-28T07:34:41;-2.50;99.90
35313;DHT22;21425;50.454;30.466;2023-02-28T07:37:06;-2.80;99.90
35313;DHT22;21425;50.454;30.466;2023-02-28T07:39:33;-2.70;99.90
35313;DHT22;21425;50.454;30.466;2023-02-28T07:41:58;-1.80;99.90
35313;DHT22;21425;50.454;30.466;2023-02-28T07:44:25;-2.80;99.90
35313;DHT22;21425;50.454;30.466;2023-02-28T07:46:51;-2.50;99.90
35313;DHT22;21425;50.454;30.466;2023-02-28T07:49:18;-2.80;99.90
35313;DHT22;21425;50.454;30.466;2023-02-28T07:51:43;-1.50;99.90
35313;DHT22;21425;50.454;30.466;2023-02-28T07:54:09;-2.00;99.90
35313;DHT22;21425;50.454;30.466;2023-02-28T07:56:34;-1.80;99.90
35313;DHT22;21425;50.454;30.466;2023-02-28T07:59:00;-2.40;99.90
35313;DHT22;21425;50.454;30.466;2023-02-28T08:01:26;-1.80;99.90
35313;DHT22;21425;50.454;30.466;2023-02-28T08:03:52;-2.30;99.90
35313;DHT22;21425;50.454;30.466;2023-02-28T08:06:21;-2.40;99.90
35313;DHT22;21425;50.454;30.466;2023-02-28T08:08:48;-2.30;99.90
35313;DHT22;21425;50.454;30.466;2023-02-28T08:13:39;-3.10;99.90
35313;DHT22;21425;50.454;30.466;2023-02-28T08:16:05;-1.40;99.90
35313;DHT22;21425;50.454;30.466;2023-02-28T08:18:32;-0.70;99.90
35313;DHT22;21425;50.454;30.466;2023-02-28T08:20:58;-0.80;99.90
35313;DHT22;21425;50.454;30.466;2023-02-28T08:23:24;-1.60;99.90
35313;DHT22;21425;50.454;30.466;2023-02-28T08:25:56;0.20;99.90
35313;DHT22;21425;50.454;30.466;2023-02-28T08:28:22;-1.60;99.90
35313;DHT22;21425;50.454;30.466;2023-02-28T08:30:48;-1.80;99.90
35313;DHT22;21425;50.454;30.466;2023-02-28T08:33:14;-1.60;99.90
35313;DHT22;21425;50.454;30.466;2023-02-28T08:35:39;-1.80;99.90
35313;DHT22;21425;50.454;30.466;2023-02-28T08:38:05;-1.90;99.90
35313;DHT22;21425;50.454;30.466;2023-02-28T08:42:57;-1.20;99.90
35313;DHT22;21425;50.454;30.466;2023-02-28T08:45:23;-1.70;99.90
35313;DHT22;21425;50.454;30.466;2023-02-28T08:50:17;-0.30;99.90
35313;DHT22;21425;50.454;30.466;2023-02-28T08:55:10;-0.70;99.90
35313;DHT22;21425;50.454;30.466;2023-02-28T08:57:36;-0.80;99.90
35313;DHT22;21425;50.454;30.466;2023-02-28T09:00:03;-1.00;99.90
35313;DHT22;21425;50.454;30.466;2023-02-28T09:02:30;-1.10;99.90
35313;DHT22;21425;50.454;30.466;2023-02-28T09:04:56;-0.90;99.90
35313;DHT22;21425;50.454;30.466;2023-02-28T09:07:22;-0.50;99.90
35313;DHT22;21425;50.454;30.466;2023-02-28T09:09:48;-0.50;99.90
35313;DHT22;21425;50.454;30.466;2023-02-28T09:12:26;0.30;99.90
35313;DHT22;21425;50.454;30.466;2023-02-28T09:14:52;0.20;99.90
35313;DHT22;21425;50.454;30.466;2023-02-28T09:17:18;-0.50;99.90
35313;DHT22;21425;50.454;30.466;2023-02-28T09:19:44;-0.80;99.90
35313;DHT22;21425;50.454;30.466;2023-02-28T09:22:10;-0.30;99.90
35313;DHT22;21425;50.454;30.466;2023-02-28T09:24:37;2.10;99.90
35313;DHT22;21425;50.454;30.466;2023-02-28T09:27:03;-0.30;99.90
35313;DHT22;21425;50.454;30.466;2023-02-28T09:29:29;-0.60;99.90
35313;DHT22;21425;50.454;30.466;2023-02-28T09:31:55;-0.50;99.90
35313;DHT22;21425;50.454;30.466;2023-02-28T09:34:24;-0.30;99.90
35313;DHT22;21425;50.454;30.466;2023-02-28T09:36:50;-0.20;99.90
35313;DHT22;21425;50.454;30.466;2023-02-28T09:39:20;0.00;99.90
35313;DHT22;21425;50.454;30.466;2023-02-28T09:41:48;-0.30;99.90
35313;DHT22;21425;50.454;30.466;2023-02-28T09:44:38;0.20;99.90
35313;DHT22;21425;50.454;30.466;2023-02-28T09:47:17;-0.30;99.90
35313;DHT22;21425;50.454;30.466;2023-02-28T09:49:46;-0.60;99.90
35313;DHT22;21425;50.454;30.466;2023-02-28T09:52:23;-0.90;99.90
35313;DHT22;21425;50.454;30.466;2023-02-28T09:54:51;-1.10;99.90
35313;DHT22;21425;50.454;30.466;2023-02-28T09:57:40;0.10;99.90
35313;DHT22;21425;50.454;30.466;2023-02-28T10:00:13;-1.20;99.90
35313;DHT22;21425;50.454;30.466;2023-02-28T10:08:05;-1.40;99.90
35313;DHT22;21425;50.454;30.466;2023-02-28T10:10:56;-1.10;99.90
35313;DHT22;21425;50.454;30.466;2023-02-28T10:13:33;-1.30;99.90
35313;DHT22;21425;50.454;30.466;2023-02-28T10:16:11;-0.60;99.90
35313;DHT22;21425;50.454;30.466;2023-02-28T10:18:56;-1.10;99.90
35313;DHT22;21425;50.454;30.466;2023-02-28T10:21:36;-0.60;99.90
35313;DHT22;21425;50.454;30.466;2023-02-28T10:24:35;-1.10;99.90
35313;DHT22;21425;50.454;30.466;2023-02-28T10:27:14;-1.40;99.90
35313;DHT22;21425;50.454;30.466;2023-02-28T10:29:43;-0.70;99.90
35313;DHT22;21425;50.454;30.466;2023-02-28T10:32:12;-1.10;99.90
35313;DHT22;21425;50.454;30.466;2023-02-28T10:34:39;-0.60;99.90
35313;DHT22;21425;50.454;30.466;2023-02-28T10:37:05;-1.30;99.90
35313;DHT22;21425;50.454;30.466;2023-02-28T10:39:54;-0.90;99.90
35313;DHT22;21425;50.454;30.466;2023-02-28T10:42:28;-1.80;99.90
35313;DHT22;21425;50.454;30.466;2023-02-28T10:45:15;-1.40;99.90
35313;DHT22;21425;50.454;30.466;2023-02-28T10:48:06;-1.20;99.90
35313;DHT22;21425;50.454;30.466;2023-02-28T10:53:32;-1.00;99.90
35313;DHT22;21425;50.454;30.466;2023-02-28T11:01:46;-0.20;99.90
35313;DHT22;21425;50.454;30.466;2023-02-28T11:07:01;-0.30;99.90
35313;DHT22;21425;50.454;30.466;2023-02-28T11:09:31;-1.40;99.90
35313;DHT22;21425;50.454;30.466;2023-02-28T11:11:58;-0.90;99.90
35313;DHT22;21425;50.454;30.466;2023-02-28T11:14:24;-0.90;99.90
35313;DHT22;21425;50.454;30.466;2023-02-28T11:16:51;-0.70;99.90
35313;DHT22;21425;50.454;30.466;2023-02-28T11:19:31;-0.70;99.90
35313;DHT22;21425;50.454;30.466;2023-02-28T11:22:02;-0.70;99.90
35313;DHT22;21425;50.454;30.466;2023-02-28T11:24:28;-0.70;99.90
35313;DHT22;21425;50.454;30.466;2023-02-28T11:26:55;-0.70;99.90
35313;DHT22;21425;50.454;30.466;2023-02-28T11:29:29;0.00;99.90
35313;DHT22;21425;50.454;30.466;2023-02-28T11:32:11;-0.40;99.90
35313;DHT22;21425;50.454;30.466;2023-02-28T11:34:38;-0.30;99.90
35313;DHT22;21425;50.454;30.466;2023-02-28T11:37:08;-0.20;99.90
35313;DHT22;21425;50.454;30.466;2023-02-28T11:39:35;0.70;99.90
35313;DHT22;21425;50.454;30.466;2023-02-28T11:42:20;-0.10;99.90
35313;DHT22;21425;50.454;30.466;2023-02-28T11:47:32;-0.10;99.90
35313;DHT22;21425;50.454;30.466;2023-02-28T11:52:45;0.00;99.90
35313;DHT22;21425;50.454;30.466;2023-02-28T11:55:26;1.10;99.90
35313;DHT22;21425;50.454;30.466;2023-02-28T12:08:53;0.30;99.90
35313;DHT22;21425;50.454;30.466;2023-02-28T12:17:26;0.50;99.90
35313;DHT22;21425;50.454;30.466;2023-02-28T12:20:34;0.10;99.90
35313;DHT22;21425;50.454;30.466;2023-02-28T12:28:12;0.10;99.90
35313;DHT22;21425;50.454;30.466;2023-02-28T12:30:56;0.30;99.90
35313;DHT22;21425;50.454;30.466;2023-02-28T12:33:26;1.00;99.90
35313;DHT22;21425;50.454;30.466;2023-02-28T12:35:58;0.00;99.90
35313;DHT22;21425;50.454;30.466;2023-02-28T12:38:28;0.20;99.90
35313;DHT22;21425;50.454;30.466;2023-02-28T12:41:02;2.00;99.90
35313;DHT22;21425;50.454;30.466;2023-02-28T12:43:35;0.30;99.90
35313;DHT22;21425;50.454;30.466;2023-02-28T12:49:04;0.80;99.90
35313;DHT22;21425;50.454;30.466;2023-02-28T12:51:30;1.10;99.90
35313;DHT22;21425;50.454;30.466;2023-02-28T12:56:49;2.60;99.90
35313;DHT22;21425;50.454;30.466;2023-02-28T12:59:26;4.90;91.70
35313;DHT22;21425;50.454;30.466;2023-02-28T13:02:09;3.10;91.20
35313;DHT22;21425;50.454;30.466;2023-02-28T13:04:47;3.80;91.30
35313;DHT22;21425;50.454;30.466;2023-02-28T13:10:06;4.70;88.10
35313;DHT22;21425;50.454;30.466;2023-02-28T13:12:34;6.40;75.40
35313;DHT22;21425;50.454;30.466;2023-02-28T13:15:16;5.90;77.90
35313;DHT22;21425;50.454;30.466;2023-02-28T13:17:48;4.80;75.90
35313;DHT22;21425;50.454;30.466;2023-02-28T13:20:25;4.70;76.90
35313;DHT22;21425;50.454;30.466;2023-02-28T13:22:53;7.10;72.10
35313;DHT22;21425;50.454;30.466;2023-02-28T13:27:49;5.80;70.30
35313;DHT22;21425;50.454;30.466;2023-02-28T13:34:13;5.30;64.70
35313;DHT22;21425;50.454;30.466;2023-02-28T13:36:39;4.60;67.70
35313;DHT22;21425;50.454;30.466;2023-02-28T13:47:42;7.10;60.40
35313;DHT22;21425;50.454;30.466;2023-02-28T13:55:34;7.70;56.10
35313;DHT22;21425;50.454;30.466;2023-02-28T13:58:32;7.00;56.90
35313;DHT22;21425;50.454;30.466;2023-02-28T14:04:01;5.70;61.10
35313;DHT22;21425;50.454;30.466;2023-02-28T14:06:36;8.60;58.80
35313;DHT22;21425;50.454;30.466;2023-02-28T14:11:37;8.30;56.40
35313;DHT22;21425;50.454;30.466;2023-02-28T14:14:04;7.30;57.40
35313;DHT22;21425;50.454;30.466;2023-02-28T14:16:43;6.50;57.30
35313;DHT22;21425;50.454;30.466;2023-02-28T14:21:47;6.10;61.70
35313;DHT22;21425;50.454;30.466;2023-02-28T14:27:05;5.80;61.20
35313;DHT22;21425;50.454;30.466;2023-02-28T14:33:04;4.80;63.20
35313;DHT22;21425;50.454;30.466;2023-02-28T14:38:27;6.50;62.50
35313;DHT22;21425;50.454;30.466;2023-02-28T14:40:55;6.00;62.10
35313;DHT22;21425;50.454;30.466;2023-02-28T14:43:24;5.70;61.90
35313;DHT22;21425;50.454;30.466;2023-02-28T14:46:04;7.90;64.20
35313;DHT22;21425;50.454;30.466;2023-02-28T14:48:31;6.20;63.40
35313;DHT22;21425;50.454;30.466;2023-02-28T14:51:00;7.20;66.10
35313;DHT22;21425;50.454;30.466;2023-02-28T14:53:29;4.00;67.40
35313;DHT22;21425;50.454;30.466;2023-02-28T14:55:55;5.10;68.00
35313;DHT22;21425;50.454;30.466;2023-02-28T14:58:32;4.00;68.20
35313;DHT22;21425;50.454;30.466;2023-02-28T15:00:59;3.60;70.00
35313;DHT22;21425;50.454;30.466;2023-02-28T15:03:37;3.10;72.30
35313;DHT22;21425;50.454;30.466;2023-02-28T15:06:23;2.90;74.50
35313;DHT22;21425;50.454;30.466;2023-02-28T15:09:26;2.90;75.50
35313;DHT22;21425;50.454;30.466;2023-02-28T15:11:52;4.20;76.50
35313;DHT22;21425;50.454;30.466;2023-02-28T15:14:19;2.70;76.00
35313;DHT22;21425;50.454;30.466;2023-02-28T15:16:52;2.80;76.60
35313;DHT22;21425;50.454;30.466;2023-02-28T15:19:30;3.00;77.70
35313;DHT22;21425;50.454;30.466;2023-02-28T15:22:07;2.60;78.60
35313;DHT22;21425;50.454;30.466;2023-02-28T15:24:42;2.80;81.50
35313;DHT22;21425;50.454;30.466;2023-02-28T15:29:48;1.10;90.70
35313;DHT22;21425;50.454;30.466;2023-02-28T15:32:29;0.70;91.10
35313;DHT22;21425;50.454;30.466;2023-02-28T15:34:57;0.40;95.10
35313;DHT22;21425;50.454;30.466;2023-02-28T15:39:54;-0.40;99.90
35313;DHT22;21425;50.454;30.466;2023-02-28T15:42:22;-0.50;99.90
35313;DHT22;21425;50.454;30.466;2023-02-28T15:44:48;-0.70;99.90
35313;DHT22;21425;50.454;30.466;2023-02-28T15:47:23;-0.80;99.90
35313;DHT22;21425;50.454;30.466;2023-02-28T15:50:10;-0.60;99.90
35313;DHT22;21425;50.454;30.466;2023-02-28T15:52:43;-1.00;99.90
35313;DHT22;21425;50.454;30.466;2023-02-28T15:55:20;-1.10;99.90
35313;DHT22;21425;50.454;30.466;2023-02-28T15:57:49;-1.00;99.90
35313;DHT22;21425;50.454;30.466;2023-02-28T16:00:20;-1.10;99.90
35313;DHT22;21425;50.454;30.466;2023-02-28T16:02:47;-1.30;99.90
35313;DHT22;21425;50.454;30.466;2023-02-28T16:10:14;-0.60;99.90
35313;DHT22;21425;50.454;30.466;2023-02-28T16:12:40;-1.00;99.90
35313;DHT22;21425;50.454;30.466;2023-02-28T16:15:08;0.20;99.90
35313;DHT22;21425;50.454;30.466;2023-02-28T16:17:37;-1.40;99.90
35313;DHT22;21425;50.454;30.466;2023-02-28T16:20:21;-1.40;99.90
35313;DHT22;21425;50.454;30.466;2023-02-28T16:25:14;-0.30;99.90
35313;DHT22;21425;50.454;30.466;2023-02-28T16:27:41;-0.70;99.90
35313;DHT22;21425;50.454;30.466;2023-02-28T16:30:09;-1.10;99.90
35313;DHT22;21425;50.454;30.466;2023-02-28T16:32:39;-1.60;99.90
35313;DHT22;21425;50.454;30.466;2023-02-28T16:35:09;-1.50;99.90
35313;DHT22;21425;50.454;30.466;2023-02-28T16:37:35;-1.00;99.90
35313;DHT22;21425;50.454;30.466;2023-02-28T16:40:01;-0.50;99.90
35313;DHT22;21425;50.454;30.466;2023-02-28T16:42:28;-1.30;99.90
35313;DHT22;21425;50.454;30.466;2023-02-28T16:44:54;0.20;99.90
35313;DHT22;21425;50.454;30.466;2023-02-28T16:47:21;-1.50;99.90
35313;DHT22;21425;50.454;30.466;2023-02-28T16:49:47;-1.60;99.90
35313;DHT22;21425;50.454;30.466;2023-02-28T16:52:14;-1.60;99.90
35313;DHT22;21425;50.454;30.466;2023-02-28T16:54:41;-2.40;99.90
35313;DHT22;21425;50.454;30.466;2023-02-28T16:57:17;-1.90;99.90
35313;DHT22;21425;50.454;30.466;2023-02-28T16:59:43;-1.80;99.90
35313;DHT22;21425;50.454;30.466;2023-02-28T17:02:14;-1.80;99.90
35313;DHT22;21425;50.454;30.466;2023-02-28T17:04:40;-1.70;99.90
35313;DHT22;21425;50.454;30.466;2023-02-28T17:07:11;-1.00;99.90
35313;DHT22;21425;50.454;30.466;2023-02-28T17:09:38;-1.90;99.90
35313;DHT22;21425;50.454;30.466;2023-02-28T17:12:04;-1.90;99.90
35313;DHT22;21425;50.454;30.466;2023-02-28T17:14:29;-1.60;99.90
35313;DHT22;21425;50.454;30.466;2023-02-28T17:16:55;-1.90;99.90
35313;DHT22;21425;50.454;30.466;2023-02-28T17:19:21;-2.00;99.90
35313;DHT22;21425;50.454;30.466;2023-02-28T17:21:46;-2.00;99.90
35313;DHT22;21425;50.454;30.466;2023-02-28T17:24:12;-2.00;99.90
35313;DHT22;21425;50.454;30.466;2023-02-28T17:26:41;-2.00;99.90
35313;DHT22;21425;50.454;30.466;2023-02-28T17:29:15;-2.10;99.90
35313;DHT22;21425;50.454;30.466;2023-02-28T17:31:41;-1.20;99.90
35313;DHT22;21425;50.454;30.466;2023-02-28T17:34:07;-2.00;99.90
35313;DHT22;21425;50.454;30.466;2023-02-28T17:36:33;-2.10;99.90
35313;DHT22;21425;50.454;30.466;2023-02-28T17:39:01;-2.10;99.90
35313;DHT22;21425;50.454;30.466;2023-02-28T17:41:26;-0.90;99.90
35313;DHT22;21425;50.454;30.466;2023-02-28T17:43:52;-2.20;99.90
35313;DHT22;21425;50.454;30.466;2023-02-28T17:48:52;-2.20;99.90
35313;DHT22;21425;50.454;30.466;2023-02-28T17:51:19;-2.10;99.90
35313;DHT22;21425;50.454;30.466;2023-02-28T17:53:45;-2.20;99.90
35313;DHT22;21425;50.454;30.466;2023-02-28T17:56:16;-2.40;99.90
35313;DHT22;21425;50.454;30.466;2023-02-28T17:58:42;-2.30;99.90
35313;DHT22;21425;50.454;30.466;2023-02-28T18:01:08;-2.30;99.90
35313;DHT22;21425;50.454;30.466;2023-02-28T18:03:33;-2.40;99.90
35313;DHT22;21425;50.454;30.466;2023-02-28T18:05:59;-2.30;99.90
35313;DHT22;21425;50.454;30.466;2023-02-28T18:08:25;-2.50;99.90
35313;DHT22;21425;50.454;30.466;2023-02-28T18:10:51;-2.50;99.90
35313;DHT22;21425;50.454;30.466;2023-02-28T18:13:17;-2.40;99.90
35313;DHT22;21425;50.454;30.466;2023-02-28T18:15:42;-2.40;99.90
35313;DHT22;21425;50.454;30.466;2023-02-28T18:18:08;-2.40;99.90
35313;DHT22;21425;50.454;30.466;2023-02-28T18:20:34;-2.80;99.90